Aeroporto :
LOGIN :

Iscrizione | Disclaimer

   EN    FR    IT 

 










Sommario :    VFR   VFR Marginale   IFR   IFR Intensivo   IFR Molto Intensivo
Visibilità : 
Base nubi : 
>= 8 km
>= 3000ft
5 / 8 km
1000 / 3000 ft
1500m / 5 km
500 / 1000 ft
800 / 1500m
200 / 500 ft
< 800m
< 200 ft
Simboli :   Temporali  Nebbia  Neve Forte  Precipitazioni Forti  Vento > 20 kt
SIGMETs :   Varie  Temporali  Ghiacco  Turbolenza  Onda orograficha  Ceneri Vulcaniche






- Altitudine del aeroporto : 247 ft
- Codice IATA : BLL


EKBI - Billund

ULTIMO METAR :
  • 051350Z 08007KT 9999 -SHRA FEW050CB BKN061 17/14 Q1011

METARs OBSOLETI :
  • 051320Z 13005KT 090V170 9999 -SHRA FEW016CB BKN049 17/13 Q1012
  • 051250Z AUTO 13006KT 9999 FEW032/// BKN053/// 18/12 Q1012
  • 051220Z AUTO 09005KT 060V120 9999 BKN053/// 18/12 Q1012
  • 051150Z AUTO 10007KT 9999 OVC048/// 18/12 Q1012

TAF TAF EKBI
Valido dal 05 a 12 ore il 06 a 12 ore UTC


051105Z 0512/0612 11008KT 9999 SCT040
TEMPO 0512/0514 SCT030CB
TEMPO 0605/0608 BKN010
TEMPO 0609/0612 SCT025CB



MetMap, La meteo Aeronautica in un colpo d'occhio ! - Copyright ORBIFLY Dicembre 2007 - Disclaimer

ORBIFLY MET'MAP TEAM :

Programmazione e sviluppo : Alexandra Zaïnal
Concezione : Baudouin d'Aumeries
Aiuto per la programmazione : Marc-Olivier Méhu
Supporto tecnico e logistico : Manuel Goepfert
Aiuto per la traduzione : Arnaldo La Scala

Contatto : metmap@orbifly.com




FONTI E CREDITI :

   NOAA